• Join FlightAware (Why Join?)
  • Login
  • US Flag 
06:56PM EDT


 

Airport Tracker/Info


-or-


 

Live Flight TrackerFlight Track Log ✈ SWA149 ✈ 20-Jun-2013 ✈ KMCO - KBDL

Flight Track Log - Related Links

Times and Time Zones

All times are in EDT time to prevent confusion due to time zone crossing. See the SWA149 flight status page for this flight to view local times or setup timezone preferences in your user account.

Time Position Orientation Groundspeed Altitude Reporting Facility
EDT Latitude Longitude Course Direction KTS MPH feet Rate Location/Type
09:09PM 28.4167 -81.3000 156° South 153 176 700  Level Orlando TRACON
09:10PM 28.3500 -81.2667 156° South 220 253 3,600 2,400 Climbing Orlando TRACON
09:11PM 28.3500 -81.2000 90° East 228 262 6,100 2,400 Climbing Orlando TRACON
09:12PM 28.3500 -81.1167 90° East 281 323 8,200 2,220 Climbing Orlando TRACON
09:13PM 28.3667 -81.0333 77° East 302 348 10,600 2,580 Climbing Orlando TRACON
09:16PM 28.4217 -80.8033 75° East 352 405 16,700 2,760 Climbing Miami Center
09:17PM 28.4769 -80.6872 62° Northeast 365 420 19,800 2,700 Climbing Miami Center
09:18PM 28.5281 -80.5731 63° Northeast 387 445 22,100 2,340 Climbing Miami Center
09:19PM 28.5789 -80.4639 62° Northeast 416 479 24,500 2,460 Climbing Miami Center
09:20PM 28.6383 -80.3308 63° Northeast 422 486 27,100 2,040 Climbing Miami Center
09:21PM 28.6847 -80.2306 62° Northeast 431 496 28,600 1,560 Climbing Miami Center
09:22PM 28.7567 -80.0978 58° Northeast 431 496 30,300 1,620 Climbing Miami Center
09:23PM 28.8589 -80.0061 38° Northeast 442 509 31,900 1,320 Climbing Miami Center
09:24PM 28.9611 -79.9094 40° Northeast 456 525 33,000 720 Climbing Miami Center
09:25PM 29.0656 -79.8031 42° Northeast 462 532 33,400 1,260 Climbing Miami Center
09:26PM 29.1631 -79.7178 37° Northeast 467 537 35,500 1,920 Climbing Miami Center
09:27PM 29.2608 -79.6250 40° Northeast 467 537 37,300 1,620 Climbing Miami Center
09:28PM 29.3628 -79.5347 38° Northeast 461 531 38,800 1,440 Climbing Miami Center
09:29PM 29.4564 -79.4394 42° Northeast 455 524 40,200 1,080 Climbing Miami Center
09:30PM 29.5558 -79.3536 37° Northeast 450 518 41,000 360 Climbing Miami Center
09:31PM 29.6533 -79.2603 40° Northeast 450 518 41,000  Level Miami Center
09:32PM 29.8258 -79.0886 41° Northeast 453 521 41,000  Level Jacksonville Center
09:33PM 29.9342 -79.0197 29° Northeast 431 496 41,000  Level Jacksonville Center
09:34PM 30.0456 -78.9744 19° North 431 496 41,000  Level Jacksonville Center
09:35PM 30.1653 -78.9336 16° North 437 503 41,000  Level Jacksonville Center
09:36PM 30.2706 -78.8931 18° North 431 496 41,000  Level Jacksonville Center
09:37PM 30.3861 -78.8497 18° North 437 503 41,000  Level Jacksonville Center
09:38PM 30.5036 -78.8061 18° North 444 511 41,000  Level Jacksonville Center
09:39PM 30.6214 -78.7625 18° North 437 503 41,000  Level Jacksonville Center
09:40PM 30.7408 -78.7161 18° North 432 497 41,000  Level Jacksonville Center
09:41PM 30.8583 -78.6725 18° North 437 503 41,000  Level Jacksonville Center
09:42PM 30.9717 -78.6286 18° North 437 503 41,000  Level Jacksonville Center
09:43PM 31.0911 -78.5819 18° North 437 503 41,000  Level Jacksonville Center
09:44PM 31.2067 -78.5425 16° North 437 503 41,000  Level Jacksonville Center
09:45PM 31.3200 -78.4983 18° North 437 503 41,000  Level Jacksonville Center
09:46PM 31.4394 -78.4489 19° North 437 503 41,000 -60 Level Jacksonville Center
09:47PM 31.5547 -78.4019 19° North 437 503 40,900  Descending Jacksonville Center
09:48PM 31.6658 -78.3600 18° North 432 497 41,000  Climbing Jacksonville Center
09:49PM 31.7831 -78.3128 19° North 432 497 41,000  Level Jacksonville Center
09:50PM 31.8903 -78.2708 18° North 427 491 41,000  Level Jacksonville Center
09:51PM 32.0053 -78.2208 20° North 427 491 41,000  Level Jacksonville Center
09:52PM 32.1164 -78.1808 17° North 422 486 41,000  Level Jacksonville Center
09:53PM 32.2317 -78.1333 19° North 422 486 41,000  Level Jacksonville Center
09:54PM 32.3425 -78.0856 20° North 422 486 41,000  Level Jacksonville Center
09:55PM 32.4558 -78.0453 17° North 422 486 41,000  Level Jacksonville Center
09:56PM 32.5667 -78.0000 19° North 416 479 41,000  Level Jacksonville Center
09:57PM 32.6817 -77.9517 19° North 421 484 41,000  Level Jacksonville Center
09:58PM 32.7947 -77.9061 19° North 421 484 41,000  Level Jacksonville Center
09:59PM 32.9075 -77.8603 19° North 421 484 41,000  Level Jacksonville Center
10:02PM 33.1531 -77.7617 19° North 440 506 41,000  Level Washington Center
10:03PM 33.2686 -77.7150 19° North 440 506 41,000  Level Washington Center
10:04PM 33.3819 -77.6706 18° North 435 501 41,000  Level Washington Center
10:05PM 33.4953 -77.6236 19° North 430 495 41,000  Level Washington Center
10:05PM 33.6108 -77.5742 20° North 430 495 41,000  Level Washington Center
10:06PM 33.7264 -77.5269 19° North 430 495 41,000  Level Washington Center
10:08PM 33.8419 -77.4822 18° North 430 495 41,000  Level Washington Center
10:09PM 33.9575 -77.4322 20° North 430 495 41,000  Level Washington Center
10:10PM 34.0750 -77.3872 18° North 430 495 41,000  Level Washington Center
10:11PM 34.1903 -77.3369 20° North 430 495 41,000  Level Washington Center
10:11PM 34.3183 -77.2842 19° North 430 495 41,000  Level Washington Center
10:12PM 34.4256 -77.2411 18° North 430 495 41,000  Level Washington Center
10:14PM 34.5431 -77.1931 19° North 430 495 41,000  Level Washington Center
10:15PM 34.6603 -77.1450 19° North 435 501 41,000  Level Washington Center
10:16PM 34.7758 -77.0942 20° North 440 506 41,000  Level Washington Center
10:16PM 34.8953 -77.0456 18° North 445 512 41,000  Level Washington Center
10:17PM 35.0128 -76.9944 20° North 445 512 41,000  Level Washington Center
10:19PM 35.1322 -76.9406 20° North 445 512 41,000  Level Washington Center
10:20PM 35.2497 -76.8892 20° North 445 512 41,000  Level Washington Center
10:20PM 35.3692 -76.8403 18° North 450 518 41,000  Level Washington Center
10:21PM 35.4950 -76.7833 20° North 450 518 41,000  Level Washington Center
10:23PM 35.6144 -76.7317 19° North 450 518 41,000  Level Washington Center
10:24PM 35.7339 -76.6822 19° North 450 518 41,000  Level Washington Center
10:24PM 35.8531 -76.6300 20° North 450 518 41,000  Level Washington Center
10:25PM 35.9706 -76.5800 19° North 450 518 41,000  Level Washington Center
10:27PM 36.0919 -76.5275 19° North 450 518 41,000  Level Washington Center
10:28PM 36.2092 -76.4750 20° North 450 518 41,000  Level Washington Center
10:29PM 36.3306 -76.4247 18° North 450 518 41,000  Level Washington Center
10:30PM 36.4478 -76.3717 20° North 450 518 41,000  Level Washington Center
10:30PM 36.5669 -76.3211 19° North 450 518 41,000  Level Washington Center
10:32PM 36.6861 -76.2706 19° North 450 518 41,000  Level Washington Center
10:33PM 36.8033 -76.2119 22° Northeast 450 518 41,000  Level Washington Center
10:34PM 36.9203 -76.1608 19° North 450 518 41,000  Level Washington Center
10:34PM 37.0436 -76.1122 17° North 455 524 41,000  Level Washington Center
10:35PM 37.1586 -76.0608 20° North 450 518 41,000  Level Washington Center
10:37PM 37.2714 -76.0069 21° North 437 503 41,000  Level Washington Center
10:38PM 37.3883 -75.9553 19° North 437 503 41,000  Level Washington Center
10:38PM 37.5011 -75.8825 27° Northeast 437 503 41,000  Level Washington Center
10:39PM 37.6139 -75.8094 27° Northeast 437 503 41,000  Level Washington Center
10:40PM 37.7247 -75.7361 28° Northeast 449 517 41,000  Level Washington Center
10:41PM 37.8144 -75.6758 28° Northeast 449 517 41,000  Level Washington Center
10:43PM 37.9353 -75.5969 27° Northeast 449 517 41,000  Level Washington Center
10:44PM 38.0500 -75.5206 28° Northeast 454 522 41,000  Level Washington Center
10:45PM 38.1625 -75.4464 27° Northeast 454 522 41,000  Level Washington Center
10:45PM 38.2731 -75.3722 28° Northeast 449 517 41,000  Level Washington Center
10:47PM 38.3917 -75.2844 30° Northeast 449 517 41,000  Level Washington Center
10:48PM 38.4997 -75.2097 28° Northeast 449 517 41,000  Level Washington Center
10:48PM 38.6100 -75.1375 27° Northeast 444 511 41,000  Level Washington Center
10:49PM 38.7203 -75.0594 29° Northeast 444 511 41,000  Level Washington Center
10:51PM 38.8303 -74.9867 27° Northeast 444 511 41,000  Level Washington Center
10:52PM 38.9406 -74.9083 29° Northeast 444 511 41,000  Level Washington Center
10:53PM 39.0483 -74.8353 28° Northeast 444 511 41,000  Level Washington Center
10:54PM 39.1561 -74.7483 32° Northeast 444 511 41,000  Level Washington Center
10:55PM 39.2597 -74.6589 34° Northeast 444 511 41,000  Level Washington Center
10:56PM 39.3675 -74.5689 33° Northeast 456 525 41,000 -240 Level Washington Center
10:57PM 39.4708 -74.4758 35° Northeast 456 525 40,600 -1,500 Descending Washington Center
10:57PM 39.5761 -74.3828 34° Northeast 456 525 38,100 -2,640 Descending Washington Center
10:59PM 39.6839 -74.2911 33° Northeast 458 527 35,400 -2,820 Descending New York Center
11:00PM 39.7864 -74.2017 34° Northeast 464 534 32,400 -2,700 Descending New York Center
11:01PM 39.8806 -74.1169 35° Northeast 459 528 30,100 -2,280 Descending New York Center
11:02PM 39.9917 -74.0222 33° Northeast 459 528 27,900 -2,520 Descending New York Center
11:03PM 40.1028 -73.9242 34° Northeast 470 541 25,100 -1,500 Descending New York Center
11:04PM 40.2094 -73.8286 34° Northeast 470 541 25,000 -60 Descending New York Center
11:05PM 40.3161 -73.7353 34° Northeast 470 541 25,000  Level New York Center
11:06PM 40.4225 -73.6417 34° Northeast 470 541 25,000 -1,020 Level New York Center
11:08PM 40.6917 -73.3925 35° Northeast 461 531 21,600 -1,680 Descending Boston Center
11:09PM 40.7736 -73.3253 32° Northeast 448 516 19,300 -1,500 Descending Boston Center
11:10PM 40.8722 -73.2169 40° Northeast 427 491 18,600 -660 Descending Boston Center
11:11PM 40.9583 -73.1133 42° Northeast 417 480 18,000 -840 Descending Boston Center
11:12PM 41.0444 -73.0097 42° Northeast 417 480 17,000 -1,020 Descending Boston Center
11:13PM 41.1303 -72.9114 41° Northeast 411 473 16,000 -1,440 Descending Boston Center
11:14PM 41.2056 -72.8236 41° Northeast 402 463 14,400 -2,460 Descending Boston Center
11:15PM 41.2872 -72.7303 41° Northeast 387 445 11,600 -1,860 Descending Boston Center
11:16PM 41.3769 -72.6944 17° North 364 419 10,900 -840 Descending Boston Center
11:17PM 41.4622 -72.6561 19° North 308 354 10,000 -1,260 Descending Boston Center
11:18PM 41.5458 -72.6231 16° North 302 348 8,400 -1,440 Descending Boston Center
11:19PM 41.6208 -72.5928 17° North 284 327 7,200 -1,440 Descending Boston Center
11:20PM 41.6917 -72.5653 16° North 270 311 5,500 -1,560 Descending Boston Center
11:21PM 41.7583 -72.5319 20° North 270 311 4,300 -1,140 Descending Boston Center
11:22PM 41.8336 -72.5236 North 270 311 3,300 -720 Descending Boston Center
11:23PM 41.9044 -72.5350 353° North 244 281 2,900 -300 Descending Boston Center
11:24PM 41.9586 -72.5572 343° North 198 228 2,800 -300 Descending Boston Center
11:25PM 42.0022 -72.5742 344° North 162 186 2,300 -600 Descending Boston Center
11:26PM 41.9939 -72.6161 255° West 130 150 1,600 -720 Descending Boston Center
11:27PM 41.9689 -72.6467 222° Southwest 124 143 900 -720 Descending Boston Center